sensor_id;sensor_type;location;lat;lon;timestamp;P1;durP1;ratioP1;P2;durP2;ratioP2
14125;SDS011;7141;49.484;11.242;2022-08-19T00:01:23;36.97;;;33.37;;
14125;SDS011;7141;49.484;11.242;2022-08-19T00:03:49;38.17;;;34.27;;
14125;SDS011;7141;49.484;11.242;2022-08-19T00:06:16;38.07;;;34.33;;
14125;SDS011;7141;49.484;11.242;2022-08-19T00:08:42;35.97;;;32.37;;
14125;SDS011;7141;49.484;11.242;2022-08-19T00:11:08;33.20;;;30.00;;
14125;SDS011;7141;49.484;11.242;2022-08-19T00:13:35;34.47;;;31.17;;
14125;SDS011;7141;49.484;11.242;2022-08-19T00:16:01;36.33;;;32.77;;
14125;SDS011;7141;49.484;11.242;2022-08-19T00:18:27;36.83;;;33.23;;
14125;SDS011;7141;49.484;11.242;2022-08-19T00:20:53;37.93;;;34.13;;
14125;SDS011;7141;49.484;11.242;2022-08-19T00:23:19;36.37;;;32.53;;
14125;SDS011;7141;49.484;11.242;2022-08-19T00:25:48;35.67;;;32.40;;
14125;SDS011;7141;49.484;11.242;2022-08-19T00:28:14;35.93;;;32.13;;
14125;SDS011;7141;49.484;11.242;2022-08-19T00:30:40;36.33;;;32.60;;
14125;SDS011;7141;49.484;11.242;2022-08-19T00:33:06;34.77;;;31.10;;
14125;SDS011;7141;49.484;11.242;2022-08-19T00:35:33;35.53;;;31.93;;
14125;SDS011;7141;49.484;11.242;2022-08-19T00:37:59;36.93;;;33.13;;
14125;SDS011;7141;49.484;11.242;2022-08-19T00:40:25;35.87;;;32.33;;
14125;SDS011;7141;49.484;11.242;2022-08-19T00:42:51;33.47;;;30.13;;
14125;SDS011;7141;49.484;11.242;2022-08-19T00:45:22;32.50;;;29.30;;
14125;SDS011;7141;49.484;11.242;2022-08-19T00:47:48;32.73;;;29.73;;
14125;SDS011;7141;49.484;11.242;2022-08-19T00:50:15;34.33;;;31.07;;
14125;SDS011;7141;49.484;11.242;2022-08-19T00:52:43;33.30;;;30.30;;
14125;SDS011;7141;49.484;11.242;2022-08-19T00:55:10;33.87;;;30.70;;
14125;SDS011;7141;49.484;11.242;2022-08-19T00:57:39;33.50;;;30.40;;
14125;SDS011;7141;49.484;11.242;2022-08-19T01:00:08;35.70;;;31.93;;
14125;SDS011;7141;49.484;11.242;2022-08-19T01:02:36;34.67;;;31.30;;
14125;SDS011;7141;49.484;11.242;2022-08-19T01:05:03;34.90;;;31.43;;
14125;SDS011;7141;49.484;11.242;2022-08-19T01:07:30;33.97;;;30.67;;
14125;SDS011;7141;49.484;11.242;2022-08-19T01:09:56;34.00;;;30.70;;
14125;SDS011;7141;49.484;11.242;2022-08-19T01:12:22;34.00;;;30.80;;
14125;SDS011;7141;49.484;11.242;2022-08-19T01:14:49;32.23;;;29.20;;
14125;SDS011;7141;49.484;11.242;2022-08-19T01:17:15;31.63;;;28.63;;
14125;SDS011;7141;49.484;11.242;2022-08-19T01:19:41;31.00;;;27.73;;
14125;SDS011;7141;49.484;11.242;2022-08-19T01:22:16;31.07;;;28.07;;
14125;SDS011;7141;49.484;11.242;2022-08-19T01:24:45;32.53;;;29.43;;
14125;SDS011;7141;49.484;11.242;2022-08-19T01:27:14;31.97;;;28.97;;
14125;SDS011;7141;49.484;11.242;2022-08-19T01:29:42;32.27;;;29.17;;
14125;SDS011;7141;49.484;11.242;2022-08-19T01:32:09;33.23;;;30.17;;
14125;SDS011;7141;49.484;11.242;2022-08-19T01:34:36;31.53;;;28.60;;
14125;SDS011;7141;49.484;11.242;2022-08-19T01:37:06;32.27;;;29.13;;
14125;SDS011;7141;49.484;11.242;2022-08-19T01:39:33;33.67;;;30.33;;
14125;SDS011;7141;49.484;11.242;2022-08-19T01:41:59;33.07;;;29.70;;
14125;SDS011;7141;49.484;11.242;2022-08-19T01:44:28;34.60;;;31.20;;
14125;SDS011;7141;49.484;11.242;2022-08-19T01:46:54;32.97;;;29.53;;
14125;SDS011;7141;49.484;11.242;2022-08-19T01:49:20;32.60;;;29.30;;
14125;SDS011;7141;49.484;11.242;2022-08-19T01:51:47;32.90;;;29.53;;
14125;SDS011;7141;49.484;11.242;2022-08-19T01:54:15;31.77;;;28.67;;
14125;SDS011;7141;49.484;11.242;2022-08-19T01:56:41;32.27;;;28.87;;
14125;SDS011;7141;49.484;11.242;2022-08-19T01:59:12;30.90;;;27.93;;
14125;SDS011;7141;49.484;11.242;2022-08-19T02:01:39;25.80;;;23.50;;
14125;SDS011;7141;49.484;11.242;2022-08-19T02:04:05;30.67;;;27.73;;
14125;SDS011;7141;49.484;11.242;2022-08-19T02:06:31;31.40;;;28.10;;
14125;SDS011;7141;49.484;11.242;2022-08-19T02:08:58;29.37;;;26.67;;
14125;SDS011;7141;49.484;11.242;2022-08-19T02:11:25;28.17;;;25.60;;
14125;SDS011;7141;49.484;11.242;2022-08-19T02:13:52;29.43;;;26.73;;
14125;SDS011;7141;49.484;11.242;2022-08-19T02:16:19;27.93;;;25.23;;
14125;SDS011;7141;49.484;11.242;2022-08-19T02:18:45;27.73;;;25.23;;
14125;SDS011;7141;49.484;11.242;2022-08-19T02:21:14;28.00;;;25.30;;
14125;SDS011;7141;49.484;11.242;2022-08-19T02:23:41;30.27;;;27.30;;
14125;SDS011;7141;49.484;11.242;2022-08-19T02:26:07;29.27;;;26.47;;
14125;SDS011;7141;49.484;11.242;2022-08-19T02:28:33;28.97;;;26.43;;
14125;SDS011;7141;49.484;11.242;2022-08-19T02:30:59;28.43;;;25.43;;
14125;SDS011;7141;49.484;11.242;2022-08-19T02:33:26;27.93;;;25.43;;
14125;SDS011;7141;49.484;11.242;2022-08-19T02:35:52;26.93;;;24.47;;
14125;SDS011;7141;49.484;11.242;2022-08-19T02:38:18;28.20;;;25.60;;
14125;SDS011;7141;49.484;11.242;2022-08-19T02:40:51;27.43;;;24.97;;
14125;SDS011;7141;49.484;11.242;2022-08-19T02:43:17;27.40;;;24.90;;
14125;SDS011;7141;49.484;11.242;2022-08-19T02:45:45;28.23;;;25.33;;
14125;SDS011;7141;49.484;11.242;2022-08-19T02:48:12;27.07;;;24.37;;
14125;SDS011;7141;49.484;11.242;2022-08-19T02:50:38;27.20;;;24.60;;
14125;SDS011;7141;49.484;11.242;2022-08-19T02:53:05;26.93;;;24.33;;
14125;SDS011;7141;49.484;11.242;2022-08-19T02:55:32;27.07;;;24.40;;
14125;SDS011;7141;49.484;11.242;2022-08-19T02:57:58;27.17;;;24.47;;
14125;SDS011;7141;49.484;11.242;2022-08-19T03:00:25;27.43;;;24.80;;
14125;SDS011;7141;49.484;11.242;2022-08-19T03:02:51;27.20;;;24.70;;
14125;SDS011;7141;49.484;11.242;2022-08-19T03:05:17;27.30;;;24.63;;
14125;SDS011;7141;49.484;11.242;2022-08-19T03:07:43;26.87;;;24.20;;
14125;SDS011;7141;49.484;11.242;2022-08-19T03:10:10;27.27;;;24.67;;
14125;SDS011;7141;49.484;11.242;2022-08-19T03:12:39;26.33;;;23.90;;
14125;SDS011;7141;49.484;11.242;2022-08-19T03:15:06;28.43;;;25.53;;
14125;SDS011;7141;49.484;11.242;2022-08-19T03:17:33;29.43;;;26.40;;
14125;SDS011;7141;49.484;11.242;2022-08-19T03:19:59;28.47;;;25.67;;
14125;SDS011;7141;49.484;11.242;2022-08-19T03:22:25;28.40;;;25.60;;
14125;SDS011;7141;49.484;11.242;2022-08-19T03:24:51;29.40;;;26.50;;
14125;SDS011;7141;49.484;11.242;2022-08-19T03:27:18;29.03;;;26.30;;
14125;SDS011;7141;49.484;11.242;2022-08-19T03:29:44;29.60;;;26.60;;
14125;SDS011;7141;49.484;11.242;2022-08-19T03:32:10;31.40;;;28.10;;
14125;SDS011;7141;49.484;11.242;2022-08-19T03:34:37;29.67;;;26.77;;
14125;SDS011;7141;49.484;11.242;2022-08-19T03:37:05;32.00;;;28.70;;
14125;SDS011;7141;49.484;11.242;2022-08-19T03:39:31;31.23;;;28.27;;
14125;SDS011;7141;49.484;11.242;2022-08-19T03:41:57;29.97;;;27.03;;
14125;SDS011;7141;49.484;11.242;2022-08-19T03:44:25;31.33;;;28.23;;
14125;SDS011;7141;49.484;11.242;2022-08-19T03:46:52;30.80;;;27.73;;
14125;SDS011;7141;49.484;11.242;2022-08-19T03:49:19;32.03;;;28.77;;
14125;SDS011;7141;49.484;11.242;2022-08-19T03:51:46;32.40;;;29.20;;
14125;SDS011;7141;49.484;11.242;2022-08-19T03:54:13;32.50;;;29.23;;
14125;SDS011;7141;49.484;11.242;2022-08-19T03:56:40;34.57;;;30.87;;
14125;SDS011;7141;49.484;11.242;2022-08-19T03:59:08;32.00;;;28.67;;
14125;SDS011;7141;49.484;11.242;2022-08-19T04:01:35;33.33;;;29.93;;
14125;SDS011;7141;49.484;11.242;2022-08-19T04:04:01;32.57;;;29.33;;
14125;SDS011;7141;49.484;11.242;2022-08-19T04:06:31;33.30;;;29.90;;
14125;SDS011;7141;49.484;11.242;2022-08-19T04:08:58;33.27;;;29.93;;
14125;SDS011;7141;49.484;11.242;2022-08-19T04:11:26;33.67;;;30.20;;
14125;SDS011;7141;49.484;11.242;2022-08-19T04:13:53;34.60;;;30.97;;
14125;SDS011;7141;49.484;11.242;2022-08-19T04:16:19;33.07;;;29.73;;
14125;SDS011;7141;49.484;11.242;2022-08-19T04:18:46;34.63;;;31.00;;
14125;SDS011;7141;49.484;11.242;2022-08-19T04:21:20;32.97;;;29.73;;
14125;SDS011;7141;49.484;11.242;2022-08-19T04:23:47;33.50;;;30.20;;
14125;SDS011;7141;49.484;11.242;2022-08-19T04:26:13;32.87;;;29.57;;
14125;SDS011;7141;49.484;11.242;2022-08-19T04:28:40;31.83;;;28.83;;
14125;SDS011;7141;49.484;11.242;2022-08-19T04:31:06;31.30;;;28.17;;
14125;SDS011;7141;49.484;11.242;2022-08-19T04:33:38;31.97;;;28.43;;
14125;SDS011;7141;49.484;11.242;2022-08-19T04:36:04;32.33;;;29.10;;
14125;SDS011;7141;49.484;11.242;2022-08-19T04:38:30;28.60;;;25.90;;
14125;SDS011;7141;49.484;11.242;2022-08-19T04:40:56;31.10;;;28.03;;
14125;SDS011;7141;49.484;11.242;2022-08-19T04:43:40;30.53;;;27.33;;
14125;SDS011;7141;49.484;11.242;2022-08-19T04:46:08;30.23;;;27.33;;
14125;SDS011;7141;49.484;11.242;2022-08-19T04:48:35;29.83;;;27.03;;
14125;SDS011;7141;49.484;11.242;2022-08-19T04:51:05;30.57;;;27.67;;
14125;SDS011;7141;49.484;11.242;2022-08-19T04:53:32;29.43;;;26.07;;
14125;SDS011;7141;49.484;11.242;2022-08-19T04:55:59;30.33;;;27.23;;
14125;SDS011;7141;49.484;11.242;2022-08-19T04:58:27;27.70;;;25.07;;
14125;SDS011;7141;49.484;11.242;2022-08-19T05:00:53;29.93;;;26.90;;
14125;SDS011;7141;49.484;11.242;2022-08-19T05:03:19;30.97;;;27.50;;
14125;SDS011;7141;49.484;11.242;2022-08-19T05:05:46;28.73;;;25.73;;
14125;SDS011;7141;49.484;11.242;2022-08-19T05:08:17;29.47;;;26.37;;
14125;SDS011;7141;49.484;11.242;2022-08-19T05:10:44;28.33;;;25.43;;
14125;SDS011;7141;49.484;11.242;2022-08-19T05:13:12;30.70;;;27.43;;
14125;SDS011;7141;49.484;11.242;2022-08-19T05:15:38;29.97;;;26.90;;
14125;SDS011;7141;49.484;11.242;2022-08-19T05:18:04;30.43;;;27.30;;
14125;SDS011;7141;49.484;11.242;2022-08-19T05:20:49;29.50;;;26.70;;
14125;SDS011;7141;49.484;11.242;2022-08-19T05:23:33;30.50;;;27.47;;
14125;SDS011;7141;49.484;11.242;2022-08-19T05:25:59;28.80;;;25.80;;
14125;SDS011;7141;49.484;11.242;2022-08-19T05:28:25;29.20;;;26.27;;
14125;SDS011;7141;49.484;11.242;2022-08-19T05:30:52;27.27;;;24.50;;
14125;SDS011;7141;49.484;11.242;2022-08-19T05:33:20;26.93;;;24.33;;
14125;SDS011;7141;49.484;11.242;2022-08-19T05:35:47;24.87;;;22.37;;
14125;SDS011;7141;49.484;11.242;2022-08-19T05:38:14;24.63;;;22.23;;
14125;SDS011;7141;49.484;11.242;2022-08-19T05:40:40;28.17;;;25.17;;
14125;SDS011;7141;49.484;11.242;2022-08-19T05:43:07;27.73;;;24.80;;
14125;SDS011;7141;49.484;11.242;2022-08-19T05:45:37;28.20;;;25.47;;
14125;SDS011;7141;49.484;11.242;2022-08-19T05:48:04;27.33;;;24.67;;
14125;SDS011;7141;49.484;11.242;2022-08-19T05:50:30;29.30;;;26.40;;
14125;SDS011;7141;49.484;11.242;2022-08-19T05:52:56;29.20;;;26.30;;
14125;SDS011;7141;49.484;11.242;2022-08-19T05:55:22;28.70;;;25.83;;
14125;SDS011;7141;49.484;11.242;2022-08-19T05:57:48;25.50;;;22.80;;
14125;SDS011;7141;49.484;11.242;2022-08-19T06:00:14;27.97;;;25.20;;
14125;SDS011;7141;49.484;11.242;2022-08-19T06:02:41;28.33;;;25.60;;
14125;SDS011;7141;49.484;11.242;2022-08-19T06:05:07;27.57;;;24.97;;
14125;SDS011;7141;49.484;11.242;2022-08-19T06:07:34;28.00;;;25.40;;
14125;SDS011;7141;49.484;11.242;2022-08-19T06:10:00;26.30;;;23.63;;
14125;SDS011;7141;49.484;11.242;2022-08-19T06:12:29;27.20;;;24.40;;
14125;SDS011;7141;49.484;11.242;2022-08-19T06:14:59;26.17;;;23.33;;
14125;SDS011;7141;49.484;11.242;2022-08-19T06:17:25;26.10;;;23.47;;
14125;SDS011;7141;49.484;11.242;2022-08-19T06:19:51;26.00;;;23.33;;
14125;SDS011;7141;49.484;11.242;2022-08-19T06:22:17;25.17;;;22.80;;
14125;SDS011;7141;49.484;11.242;2022-08-19T06:24:43;25.23;;;22.63;;
14125;SDS011;7141;49.484;11.242;2022-08-19T06:27:09;23.17;;;20.97;;
14125;SDS011;7141;49.484;11.242;2022-08-19T06:29:35;23.80;;;21.60;;
14125;SDS011;7141;49.484;11.242;2022-08-19T06:32:02;23.73;;;21.53;;
14125;SDS011;7141;49.484;11.242;2022-08-19T06:34:30;20.13;;;18.17;;
14125;SDS011;7141;49.484;11.242;2022-08-19T06:36:57;21.93;;;19.83;;
14125;SDS011;7141;49.484;11.242;2022-08-19T06:39:27;21.17;;;19.17;;
14125;SDS011;7141;49.484;11.242;2022-08-19T06:41:54;20.47;;;18.60;;
14125;SDS011;7141;49.484;11.242;2022-08-19T06:44:22;17.77;;;16.20;;
14125;SDS011;7141;49.484;11.242;2022-08-19T06:46:48;19.90;;;17.90;;
14125;SDS011;7141;49.484;11.242;2022-08-19T06:49:14;19.50;;;17.67;;
14125;SDS011;7141;49.484;11.242;2022-08-19T06:51:41;19.90;;;18.00;;
14125;SDS011;7141;49.484;11.242;2022-08-19T06:54:08;19.33;;;17.43;;
14125;SDS011;7141;49.484;11.242;2022-08-19T06:56:34;20.13;;;16.27;;
14125;SDS011;7141;49.484;11.242;2022-08-19T06:59:04;16.07;;;14.57;;
14125;SDS011;7141;49.484;11.242;2022-08-19T07:01:35;17.60;;;15.03;;
14125;SDS011;7141;49.484;11.242;2022-08-19T07:04:02;17.13;;;15.33;;
14125;SDS011;7141;49.484;11.242;2022-08-19T07:06:28;16.83;;;15.13;;
14125;SDS011;7141;49.484;11.242;2022-08-19T07:08:56;14.80;;;13.50;;
14125;SDS011;7141;49.484;11.242;2022-08-19T07:11:23;15.73;;;14.13;;
14125;SDS011;7141;49.484;11.242;2022-08-19T07:13:49;16.67;;;15.07;;
14125;SDS011;7141;49.484;11.242;2022-08-19T07:16:17;16.90;;;15.40;;
14125;SDS011;7141;49.484;11.242;2022-08-19T07:18:44;16.93;;;15.33;;
14125;SDS011;7141;49.484;11.242;2022-08-19T07:21:13;16.83;;;15.23;;
14125;SDS011;7141;49.484;11.242;2022-08-19T07:23:40;17.17;;;15.23;;
14125;SDS011;7141;49.484;11.242;2022-08-19T07:26:28;18.00;;;16.30;;
14125;SDS011;7141;49.484;11.242;2022-08-19T07:28:52;18.17;;;16.47;;
14125;SDS011;7141;49.484;11.242;2022-08-19T07:31:19;18.90;;;17.00;;
14125;SDS011;7141;49.484;11.242;2022-08-19T07:33:46;17.67;;;15.90;;
14125;SDS011;7141;49.484;11.242;2022-08-19T07:36:13;18.67;;;16.97;;
14125;SDS011;7141;49.484;11.242;2022-08-19T07:38:43;18.33;;;16.43;;
14125;SDS011;7141;49.484;11.242;2022-08-19T07:41:11;17.23;;;15.63;;
14125;SDS011;7141;49.484;11.242;2022-08-19T07:43:38;19.40;;;16.90;;
14125;SDS011;7141;49.484;11.242;2022-08-19T07:46:04;18.80;;;17.00;;
14125;SDS011;7141;49.484;11.242;2022-08-19T07:48:30;17.17;;;15.57;;
14125;SDS011;7141;49.484;11.242;2022-08-19T07:50:58;17.20;;;15.60;;
14125;SDS011;7141;49.484;11.242;2022-08-19T07:53:27;16.87;;;15.27;;
14125;SDS011;7141;49.484;11.242;2022-08-19T07:55:53;17.23;;;15.63;;
14125;SDS011;7141;49.484;11.242;2022-08-19T07:58:20;17.10;;;15.40;;
14125;SDS011;7141;49.484;11.242;2022-08-19T08:00:47;17.17;;;15.60;;
14125;SDS011;7141;49.484;11.242;2022-08-19T08:03:14;17.27;;;15.57;;
14125;SDS011;7141;49.484;11.242;2022-08-19T08:05:41;17.10;;;15.50;;
14125;SDS011;7141;49.484;11.242;2022-08-19T08:08:26;17.87;;;16.03;;
14125;SDS011;7141;49.484;11.242;2022-08-19T08:11:01;16.53;;;14.83;;
14125;SDS011;7141;49.484;11.242;2022-08-19T08:13:28;17.67;;;15.90;;
14125;SDS011;7141;49.484;11.242;2022-08-19T08:15:54;16.73;;;15.03;;
14125;SDS011;7141;49.484;11.242;2022-08-19T08:18:20;17.40;;;15.70;;
14125;SDS011;7141;49.484;11.242;2022-08-19T08:20:46;17.83;;;16.00;;
14125;SDS011;7141;49.484;11.242;2022-08-19T08:23:12;17.63;;;15.77;;
14125;SDS011;7141;49.484;11.242;2022-08-19T08:25:47;17.00;;;15.43;;
14125;SDS011;7141;49.484;11.242;2022-08-19T08:28:14;17.63;;;15.83;;
14125;SDS011;7141;49.484;11.242;2022-08-19T08:30:40;18.13;;;16.30;;
14125;SDS011;7141;49.484;11.242;2022-08-19T08:33:08;17.40;;;15.70;;
14125;SDS011;7141;49.484;11.242;2022-08-19T08:35:35;18.47;;;16.37;;
14125;SDS011;7141;49.484;11.242;2022-08-19T08:38:01;17.97;;;16.27;;
14125;SDS011;7141;49.484;11.242;2022-08-19T08:40:30;20.13;;;18.07;;
14125;SDS011;7141;49.484;11.242;2022-08-19T08:45:47;20.27;;;18.27;;
14125;SDS011;7141;49.484;11.242;2022-08-19T08:48:18;22.47;;;19.03;;
14125;SDS011;7141;49.484;11.242;2022-08-19T08:50:46;23.07;;;20.70;;
14125;SDS011;7141;49.484;11.242;2022-08-19T08:53:16;21.27;;;19.07;;
14125;SDS011;7141;49.484;11.242;2022-08-19T08:55:46;22.93;;;19.63;;
14125;SDS011;7141;49.484;11.242;2022-08-19T08:58:32;22.97;;;19.70;;
14125;SDS011;7141;49.484;11.242;2022-08-19T09:01:08;21.83;;;19.53;;
14125;SDS011;7141;49.484;11.242;2022-08-19T09:03:34;21.83;;;19.53;;
14125;SDS011;7141;49.484;11.242;2022-08-19T09:06:03;23.77;;;20.03;;
14125;SDS011;7141;49.484;11.242;2022-08-19T09:08:43;24.57;;;21.10;;
14125;SDS011;7141;49.484;11.242;2022-08-19T09:11:14;22.37;;;20.00;;
14125;SDS011;7141;49.484;11.242;2022-08-19T09:16:12;22.93;;;20.57;;
14125;SDS011;7141;49.484;11.242;2022-08-19T09:18:46;25.53;;;20.37;;
14125;SDS011;7141;49.484;11.242;2022-08-19T09:21:13;21.33;;;19.00;;
14125;SDS011;7141;49.484;11.242;2022-08-19T09:23:39;20.30;;;18.10;;
14125;SDS011;7141;49.484;11.242;2022-08-19T09:26:09;21.13;;;18.70;;
14125;SDS011;7141;49.484;11.242;2022-08-19T09:28:38;23.30;;;20.53;;
14125;SDS011;7141;49.484;11.242;2022-08-19T09:31:08;26.37;;;20.03;;
14125;SDS011;7141;49.484;11.242;2022-08-19T09:33:34;22.63;;;20.03;;
14125;SDS011;7141;49.484;11.242;2022-08-19T09:36:06;23.97;;;20.50;;
14125;SDS011;7141;49.484;11.242;2022-08-19T09:38:34;25.70;;;21.43;;
14125;SDS011;7141;49.484;11.242;2022-08-19T09:41:04;23.80;;;20.90;;
14125;SDS011;7141;49.484;11.242;2022-08-19T09:43:31;23.07;;;20.63;;
14125;SDS011;7141;49.484;11.242;2022-08-19T09:45:57;26.87;;;20.93;;
14125;SDS011;7141;49.484;11.242;2022-08-19T09:48:23;25.33;;;19.67;;
14125;SDS011;7141;49.484;11.242;2022-08-19T09:50:49;22.60;;;20.20;;
14125;SDS011;7141;49.484;11.242;2022-08-19T09:53:16;22.07;;;19.80;;
14125;SDS011;7141;49.484;11.242;2022-08-19T09:55:43;23.73;;;20.33;;
14125;SDS011;7141;49.484;11.242;2022-08-19T09:58:09;21.57;;;18.83;;
14125;SDS011;7141;49.484;11.242;2022-08-19T10:00:37;21.23;;;19.03;;
14125;SDS011;7141;49.484;11.242;2022-08-19T10:03:03;21.13;;;18.90;;
14125;SDS011;7141;49.484;11.242;2022-08-19T10:05:29;22.30;;;18.53;;
14125;SDS011;7141;49.484;11.242;2022-08-19T10:08:14;21.07;;;18.93;;
14125;SDS011;7141;49.484;11.242;2022-08-19T10:10:40;20.87;;;18.77;;
14125;SDS011;7141;49.484;11.242;2022-08-19T10:13:08;20.07;;;17.70;;
14125;SDS011;7141;49.484;11.242;2022-08-19T10:15:34;20.13;;;18.13;;
14125;SDS011;7141;49.484;11.242;2022-08-19T10:18:00;23.03;;;20.43;;
14125;SDS011;7141;49.484;11.242;2022-08-19T10:20:27;23.43;;;21.03;;
14125;SDS011;7141;49.484;11.242;2022-08-19T10:22:54;24.47;;;21.40;;
14125;SDS011;7141;49.484;11.242;2022-08-19T10:25:20;23.33;;;20.97;;
14125;SDS011;7141;49.484;11.242;2022-08-19T10:27:46;25.37;;;22.77;;
14125;SDS011;7141;49.484;11.242;2022-08-19T10:30:12;26.67;;;23.93;;
14125;SDS011;7141;49.484;11.242;2022-08-19T10:32:38;27.37;;;24.57;;
14125;SDS011;7141;49.484;11.242;2022-08-19T10:35:05;28.80;;;24.83;;
14125;SDS011;7141;49.484;11.242;2022-08-19T10:37:33;27.37;;;24.50;;
14125;SDS011;7141;49.484;11.242;2022-08-19T10:39:59;28.80;;;25.80;;
14125;SDS011;7141;49.484;11.242;2022-08-19T10:42:26;30.27;;;27.07;;
14125;SDS011;7141;49.484;11.242;2022-08-19T10:44:52;30.23;;;26.60;;
14125;SDS011;7141;49.484;11.242;2022-08-19T10:47:18;31.00;;;26.57;;
14125;SDS011;7141;49.484;11.242;2022-08-19T10:49:45;35.20;;;28.10;;
14125;SDS011;7141;49.484;11.242;2022-08-19T10:52:32;33.60;;;28.17;;
14125;SDS011;7141;49.484;11.242;2022-08-19T10:54:59;35.47;;;28.63;;
14125;SDS011;7141;49.484;11.242;2022-08-19T10:57:43;31.67;;;27.67;;
14125;SDS011;7141;49.484;11.242;2022-08-19T11:00:10;31.23;;;27.27;;
14125;SDS011;7141;49.484;11.242;2022-08-19T11:02:36;30.83;;;25.60;;
14125;SDS011;7141;49.484;11.242;2022-08-19T11:05:02;32.13;;;26.33;;
14125;SDS011;7141;49.484;11.242;2022-08-19T11:07:28;31.47;;;27.43;;
14125;SDS011;7141;49.484;11.242;2022-08-19T11:09:54;29.63;;;26.43;;
14125;SDS011;7141;49.484;11.242;2022-08-19T11:12:20;30.37;;;26.83;;
14125;SDS011;7141;49.484;11.242;2022-08-19T11:14:46;31.23;;;26.57;;
14125;SDS011;7141;49.484;11.242;2022-08-19T11:17:14;29.43;;;26.43;;
14125;SDS011;7141;49.484;11.242;2022-08-19T11:19:40;27.83;;;24.57;;
14125;SDS011;7141;49.484;11.242;2022-08-19T11:22:08;27.90;;;25.03;;
14125;SDS011;7141;49.484;11.242;2022-08-19T11:24:34;40.03;;;28.50;;
14125;SDS011;7141;49.484;11.242;2022-08-19T11:27:02;32.70;;;28.50;;
14125;SDS011;7141;49.484;11.242;2022-08-19T11:29:29;32.87;;;28.57;;
14125;SDS011;7141;49.484;11.242;2022-08-19T11:31:55;34.20;;;30.13;;
14125;SDS011;7141;49.484;11.242;2022-08-19T11:34:22;33.20;;;29.60;;
14125;SDS011;7141;49.484;11.242;2022-08-19T11:36:49;34.20;;;29.67;;
14125;SDS011;7141;49.484;11.242;2022-08-19T11:39:16;33.47;;;30.00;;
14125;SDS011;7141;49.484;11.242;2022-08-19T11:41:43;36.03;;;32.20;;
14125;SDS011;7141;49.484;11.242;2022-08-19T11:44:09;36.50;;;31.10;;
14125;SDS011;7141;49.484;11.242;2022-08-19T11:46:36;36.00;;;31.73;;
14125;SDS011;7141;49.484;11.242;2022-08-19T11:49:02;36.97;;;31.23;;
14125;SDS011;7141;49.484;11.242;2022-08-19T11:51:30;35.27;;;31.43;;
14125;SDS011;7141;49.484;11.242;2022-08-19T11:53:57;34.17;;;29.70;;
14125;SDS011;7141;49.484;11.242;2022-08-19T11:56:23;33.97;;;30.47;;
14125;SDS011;7141;49.484;11.242;2022-08-19T11:58:50;38.47;;;34.17;;
14125;SDS011;7141;49.484;11.242;2022-08-19T12:01:18;36.37;;;31.90;;
14125;SDS011;7141;49.484;11.242;2022-08-19T12:03:45;35.00;;;30.83;;
14125;SDS011;7141;49.484;11.242;2022-08-19T12:06:13;35.97;;;32.07;;
14125;SDS011;7141;49.484;11.242;2022-08-19T12:08:40;38.37;;;34.27;;
14125;SDS011;7141;49.484;11.242;2022-08-19T12:11:07;35.97;;;31.30;;
14125;SDS011;7141;49.484;11.242;2022-08-19T12:13:33;37.03;;;32.73;;
14125;SDS011;7141;49.484;11.242;2022-08-19T12:16:00;38.70;;;34.50;;
14125;SDS011;7141;49.484;11.242;2022-08-19T12:18:26;39.57;;;34.67;;
14125;SDS011;7141;49.484;11.242;2022-08-19T12:20:53;40.37;;;35.37;;
14125;SDS011;7141;49.484;11.242;2022-08-19T12:23:22;36.70;;;32.80;;
14125;SDS011;7141;49.484;11.242;2022-08-19T12:25:48;34.53;;;30.97;;
14125;SDS011;7141;49.484;11.242;2022-08-19T12:28:16;36.60;;;32.80;;
14125;SDS011;7141;49.484;11.242;2022-08-19T12:30:43;41.37;;;34.37;;
14125;SDS011;7141;49.484;11.242;2022-08-19T12:33:09;34.77;;;30.93;;
14125;SDS011;7141;49.484;11.242;2022-08-19T12:35:35;32.57;;;28.97;;
14125;SDS011;7141;49.484;11.242;2022-08-19T12:38:01;33.57;;;29.93;;
14125;SDS011;7141;49.484;11.242;2022-08-19T12:40:27;35.83;;;31.90;;
14125;SDS011;7141;49.484;11.242;2022-08-19T12:42:54;35.40;;;31.30;;
14125;SDS011;7141;49.484;11.242;2022-08-19T12:45:20;35.43;;;31.63;;
14125;SDS011;7141;49.484;11.242;2022-08-19T12:47:47;34.80;;;30.50;;
14125;SDS011;7141;49.484;11.242;2022-08-19T12:50:14;33.60;;;29.43;;
14125;SDS011;7141;49.484;11.242;2022-08-19T12:52:40;33.30;;;29.53;;
14125;SDS011;7141;49.484;11.242;2022-08-19T12:55:07;31.33;;;27.97;;
14125;SDS011;7141;49.484;11.242;2022-08-19T12:57:33;30.67;;;27.47;;
14125;SDS011;7141;49.484;11.242;2022-08-19T13:00:01;29.57;;;26.30;;
14125;SDS011;7141;49.484;11.242;2022-08-19T13:02:29;29.13;;;26.17;;
14125;SDS011;7141;49.484;11.242;2022-08-19T13:04:57;27.97;;;24.97;;
14125;SDS011;7141;49.484;11.242;2022-08-19T13:07:23;28.70;;;25.60;;
14125;SDS011;7141;49.484;11.242;2022-08-19T13:09:51;28.27;;;25.50;;
14125;SDS011;7141;49.484;11.242;2022-08-19T13:12:17;27.80;;;24.80;;
14125;SDS011;7141;49.484;11.242;2022-08-19T13:14:43;29.07;;;25.87;;
14125;SDS011;7141;49.484;11.242;2022-08-19T13:17:14;30.77;;;27.87;;
14125;SDS011;7141;49.484;11.242;2022-08-19T13:19:40;34.83;;;31.07;;
14125;SDS011;7141;49.484;11.242;2022-08-19T13:22:06;30.13;;;27.00;;
14125;SDS011;7141;49.484;11.242;2022-08-19T13:24:32;29.13;;;25.77;;
14125;SDS011;7141;49.484;11.242;2022-08-19T13:26:59;27.23;;;24.43;;
14125;SDS011;7141;49.484;11.242;2022-08-19T13:29:25;29.87;;;26.67;;
14125;SDS011;7141;49.484;11.242;2022-08-19T13:32:10;28.90;;;26.10;;
14125;SDS011;7141;49.484;11.242;2022-08-19T13:34:54;31.67;;;26.60;;
14125;SDS011;7141;49.484;11.242;2022-08-19T13:37:21;31.23;;;28.17;;
14125;SDS011;7141;49.484;11.242;2022-08-19T13:40:06;28.77;;;25.87;;
14125;SDS011;7141;49.484;11.242;2022-08-19T13:42:32;29.50;;;26.40;;
14125;SDS011;7141;49.484;11.242;2022-08-19T13:44:58;29.70;;;26.73;;
14125;SDS011;7141;49.484;11.242;2022-08-19T13:47:24;29.17;;;26.23;;
14125;SDS011;7141;49.484;11.242;2022-08-19T13:49:50;29.77;;;26.90;;
14125;SDS011;7141;49.484;11.242;2022-08-19T13:52:16;31.43;;;28.33;;
14125;SDS011;7141;49.484;11.242;2022-08-19T13:54:42;29.70;;;26.80;;
14125;SDS011;7141;49.484;11.242;2022-08-19T13:57:08;30.07;;;27.07;;
14125;SDS011;7141;49.484;11.242;2022-08-19T13:59:34;28.97;;;26.07;;
14125;SDS011;7141;49.484;11.242;2022-08-19T14:02:01;28.90;;;26.00;;
14125;SDS011;7141;49.484;11.242;2022-08-19T14:04:27;30.43;;;27.33;;
14125;SDS011;7141;49.484;11.242;2022-08-19T14:06:53;29.77;;;26.73;;
14125;SDS011;7141;49.484;11.242;2022-08-19T14:09:19;30.63;;;27.37;;
14125;SDS011;7141;49.484;11.242;2022-08-19T14:11:45;31.60;;;28.03;;
14125;SDS011;7141;49.484;11.242;2022-08-19T14:14:11;32.83;;;29.43;;
14125;SDS011;7141;49.484;11.242;2022-08-19T14:16:37;35.30;;;28.50;;
14125;SDS011;7141;49.484;11.242;2022-08-19T14:19:03;30.07;;;27.07;;
14125;SDS011;7141;49.484;11.242;2022-08-19T14:21:29;31.20;;;27.90;;
14125;SDS011;7141;49.484;11.242;2022-08-19T14:23:55;29.10;;;25.93;;
14125;SDS011;7141;49.484;11.242;2022-08-19T14:26:21;34.73;;;26.43;;
14125;SDS011;7141;49.484;11.242;2022-08-19T14:28:48;29.33;;;24.93;;